sensor_id;sensor_type;location;lat;lon;timestamp;P1;durP1;ratioP1;P2;durP2;ratioP2
8104;SDS011;4095;48.942;9.104;2023-02-28T00:01:05;4.33;;;3.63;;
8104;SDS011;4095;48.942;9.104;2023-02-28T00:03:30;4.37;;;3.20;;
8104;SDS011;4095;48.942;9.104;2023-02-28T00:06:00;5.97;;;3.90;;
8104;SDS011;4095;48.942;9.104;2023-02-28T00:08:29;5.47;;;4.23;;
8104;SDS011;4095;48.942;9.104;2023-02-28T00:10:55;4.70;;;3.80;;
8104;SDS011;4095;48.942;9.104;2023-02-28T00:13:20;4.97;;;3.70;;
8104;SDS011;4095;48.942;9.104;2023-02-28T00:15:46;4.53;;;3.23;;
8104;SDS011;4095;48.942;9.104;2023-02-28T00:18:11;4.63;;;3.27;;
8104;SDS011;4095;48.942;9.104;2023-02-28T00:20:38;4.43;;;3.23;;
8104;SDS011;4095;48.942;9.104;2023-02-28T00:23:03;4.43;;;3.07;;
8104;SDS011;4095;48.942;9.104;2023-02-28T00:25:29;5.47;;;4.00;;
8104;SDS011;4095;48.942;9.104;2023-02-28T00:27:55;5.30;;;3.50;;
8104;SDS011;4095;48.942;9.104;2023-02-28T00:30:21;5.13;;;3.47;;
8104;SDS011;4095;48.942;9.104;2023-02-28T00:32:48;4.10;;;3.17;;
8104;SDS011;4095;48.942;9.104;2023-02-28T00:35:14;5.17;;;4.17;;
8104;SDS011;4095;48.942;9.104;2023-02-28T00:37:41;5.63;;;4.10;;
8104;SDS011;4095;48.942;9.104;2023-02-28T00:40:07;4.87;;;4.10;;
8104;SDS011;4095;48.942;9.104;2023-02-28T00:42:35;4.87;;;3.97;;
8104;SDS011;4095;48.942;9.104;2023-02-28T00:45:01;4.97;;;3.83;;
8104;SDS011;4095;48.942;9.104;2023-02-28T00:47:29;5.73;;;3.60;;
8104;SDS011;4095;48.942;9.104;2023-02-28T00:49:54;5.27;;;3.70;;
8104;SDS011;4095;48.942;9.104;2023-02-28T00:52:20;6.83;;;3.90;;
8104;SDS011;4095;48.942;9.104;2023-02-28T00:54:46;4.70;;;3.73;;
8104;SDS011;4095;48.942;9.104;2023-02-28T00:57:12;4.90;;;3.47;;
8104;SDS011;4095;48.942;9.104;2023-02-28T00:59:37;5.90;;;4.30;;
8104;SDS011;4095;48.942;9.104;2023-02-28T01:02:03;5.50;;;3.77;;
8104;SDS011;4095;48.942;9.104;2023-02-28T01:04:28;6.03;;;4.60;;
8104;SDS011;4095;48.942;9.104;2023-02-28T01:06:54;4.47;;;3.80;;
8104;SDS011;4095;48.942;9.104;2023-02-28T01:09:19;4.20;;;3.80;;
8104;SDS011;4095;48.942;9.104;2023-02-28T01:11:45;5.10;;;4.30;;
8104;SDS011;4095;48.942;9.104;2023-02-28T01:14:12;4.23;;;3.80;;
8104;SDS011;4095;48.942;9.104;2023-02-28T01:16:39;5.20;;;3.70;;
8104;SDS011;4095;48.942;9.104;2023-02-28T01:19:04;4.90;;;3.90;;
8104;SDS011;4095;48.942;9.104;2023-02-28T01:21:30;5.30;;;4.00;;
8104;SDS011;4095;48.942;9.104;2023-02-28T01:23:57;6.37;;;4.30;;
8104;SDS011;4095;48.942;9.104;2023-02-28T01:26:23;4.50;;;3.80;;
8104;SDS011;4095;48.942;9.104;2023-02-28T01:28:49;8.03;;;4.47;;
8104;SDS011;4095;48.942;9.104;2023-02-28T01:31:16;4.20;;;3.30;;
8104;SDS011;4095;48.942;9.104;2023-02-28T01:33:43;5.50;;;3.57;;
8104;SDS011;4095;48.942;9.104;2023-02-28T01:36:10;5.17;;;3.50;;
8104;SDS011;4095;48.942;9.104;2023-02-28T01:38:37;4.17;;;3.20;;
8104;SDS011;4095;48.942;9.104;2023-02-28T01:41:04;3.50;;;3.20;;
8104;SDS011;4095;48.942;9.104;2023-02-28T01:43:32;4.43;;;3.70;;
8104;SDS011;4095;48.942;9.104;2023-02-28T01:46:17;3.83;;;3.40;;
8104;SDS011;4095;48.942;9.104;2023-02-28T01:48:49;3.60;;;3.30;;
8104;SDS011;4095;48.942;9.104;2023-02-28T01:51:29;4.37;;;3.77;;
8104;SDS011;4095;48.942;9.104;2023-02-28T01:54:04;4.00;;;3.30;;
8104;SDS011;4095;48.942;9.104;2023-02-28T01:56:38;4.17;;;3.67;;
8104;SDS011;4095;48.942;9.104;2023-02-28T01:59:13;4.03;;;3.60;;
8104;SDS011;4095;48.942;9.104;2023-02-28T02:01:45;4.57;;;3.70;;
8104;SDS011;4095;48.942;9.104;2023-02-28T02:04:10;5.47;;;3.67;;
8104;SDS011;4095;48.942;9.104;2023-02-28T02:06:43;4.73;;;3.50;;
8104;SDS011;4095;48.942;9.104;2023-02-28T02:09:11;5.60;;;3.37;;
8104;SDS011;4095;48.942;9.104;2023-02-28T02:11:36;5.00;;;3.77;;
8104;SDS011;4095;48.942;9.104;2023-02-28T02:17:13;4.60;;;3.80;;
8104;SDS011;4095;48.942;9.104;2023-02-28T02:28:11;5.27;;;4.07;;
8104;SDS011;4095;48.942;9.104;2023-02-28T02:36:36;6.57;;;4.27;;
8104;SDS011;4095;48.942;9.104;2023-02-28T02:39:16;4.60;;;3.60;;
8104;SDS011;4095;48.942;9.104;2023-02-28T02:41:55;4.73;;;3.80;;
8104;SDS011;4095;48.942;9.104;2023-02-28T02:47:27;5.10;;;3.87;;
8104;SDS011;4095;48.942;9.104;2023-02-28T02:49:56;5.67;;;4.17;;
8104;SDS011;4095;48.942;9.104;2023-02-28T02:52:37;5.30;;;3.80;;
8104;SDS011;4095;48.942;9.104;2023-02-28T02:55:06;6.53;;;4.13;;
8104;SDS011;4095;48.942;9.104;2023-02-28T02:57:40;5.07;;;3.90;;
8104;SDS011;4095;48.942;9.104;2023-02-28T03:00:13;6.07;;;4.23;;
8104;SDS011;4095;48.942;9.104;2023-02-28T03:02:41;7.17;;;4.07;;
8104;SDS011;4095;48.942;9.104;2023-02-28T03:05:15;5.47;;;4.23;;
8104;SDS011;4095;48.942;9.104;2023-02-28T03:07:44;6.00;;;4.10;;
8104;SDS011;4095;48.942;9.104;2023-02-28T03:26:54;6.60;;;4.33;;
8104;SDS011;4095;48.942;9.104;2023-02-28T03:32:00;5.53;;;4.50;;
8104;SDS011;4095;48.942;9.104;2023-02-28T03:34:39;6.37;;;4.33;;
8104;SDS011;4095;48.942;9.104;2023-02-28T03:37:12;5.83;;;4.40;;
8104;SDS011;4095;48.942;9.104;2023-02-28T03:39:44;6.67;;;4.87;;
8104;SDS011;4095;48.942;9.104;2023-02-28T03:42:15;6.00;;;4.53;;
8104;SDS011;4095;48.942;9.104;2023-02-28T03:44:51;5.90;;;4.67;;
8104;SDS011;4095;48.942;9.104;2023-02-28T03:47:31;5.67;;;4.10;;
8104;SDS011;4095;48.942;9.104;2023-02-28T03:50:39;4.83;;;4.33;;
8104;SDS011;4095;48.942;9.104;2023-02-28T03:56:03;5.30;;;4.33;;
8104;SDS011;4095;48.942;9.104;2023-02-28T03:58:44;6.93;;;4.67;;
8104;SDS011;4095;48.942;9.104;2023-02-28T04:01:26;5.97;;;4.57;;
8104;SDS011;4095;48.942;9.104;2023-02-28T04:04:06;6.53;;;4.33;;
8104;SDS011;4095;48.942;9.104;2023-02-28T04:06:32;6.00;;;5.07;;
8104;SDS011;4095;48.942;9.104;2023-02-28T04:08:59;6.00;;;4.80;;
8104;SDS011;4095;48.942;9.104;2023-02-28T04:11:38;6.33;;;4.60;;
8104;SDS011;4095;48.942;9.104;2023-02-28T04:14:06;5.90;;;4.50;;
8104;SDS011;4095;48.942;9.104;2023-02-28T04:16:33;5.27;;;4.47;;
8104;SDS011;4095;48.942;9.104;2023-02-28T04:19:00;5.60;;;4.63;;
8104;SDS011;4095;48.942;9.104;2023-02-28T04:21:31;7.33;;;4.80;;
8104;SDS011;4095;48.942;9.104;2023-02-28T04:23:59;6.60;;;5.00;;
8104;SDS011;4095;48.942;9.104;2023-02-28T04:26:27;5.23;;;4.50;;
8104;SDS011;4095;48.942;9.104;2023-02-28T04:28:56;8.10;;;5.37;;
8104;SDS011;4095;48.942;9.104;2023-02-28T04:31:23;8.13;;;5.43;;
8104;SDS011;4095;48.942;9.104;2023-02-28T04:33:48;5.57;;;4.97;;
8104;SDS011;4095;48.942;9.104;2023-02-28T04:36:14;5.33;;;4.60;;
8104;SDS011;4095;48.942;9.104;2023-02-28T04:38:42;6.67;;;4.87;;
8104;SDS011;4095;48.942;9.104;2023-02-28T04:41:08;7.23;;;4.37;;
8104;SDS011;4095;48.942;9.104;2023-02-28T04:43:34;5.73;;;4.53;;
8104;SDS011;4095;48.942;9.104;2023-02-28T04:46:01;8.00;;;5.07;;
8104;SDS011;4095;48.942;9.104;2023-02-28T04:48:29;5.33;;;4.60;;
8104;SDS011;4095;48.942;9.104;2023-02-28T04:51:00;6.17;;;5.00;;
8104;SDS011;4095;48.942;9.104;2023-02-28T04:53:36;5.57;;;4.73;;
8104;SDS011;4095;48.942;9.104;2023-02-28T04:56:04;6.13;;;4.60;;
8104;SDS011;4095;48.942;9.104;2023-02-28T04:58:30;7.03;;;4.57;;
8104;SDS011;4095;48.942;9.104;2023-02-28T05:01:04;6.77;;;5.00;;
8104;SDS011;4095;48.942;9.104;2023-02-28T05:03:50;5.30;;;4.80;;
8104;SDS011;4095;48.942;9.104;2023-02-28T05:06:17;5.97;;;5.07;;
8104;SDS011;4095;48.942;9.104;2023-02-28T05:08:43;6.50;;;4.93;;
8104;SDS011;4095;48.942;9.104;2023-02-28T05:11:13;5.50;;;4.83;;
8104;SDS011;4095;48.942;9.104;2023-02-28T05:13:49;5.90;;;5.23;;
8104;SDS011;4095;48.942;9.104;2023-02-28T05:16:16;5.50;;;4.93;;
8104;SDS011;4095;48.942;9.104;2023-02-28T05:18:42;6.60;;;5.23;;
8104;SDS011;4095;48.942;9.104;2023-02-28T05:23:54;6.33;;;5.20;;
8104;SDS011;4095;48.942;9.104;2023-02-28T05:26:21;5.63;;;4.87;;
8104;SDS011;4095;48.942;9.104;2023-02-28T05:28:47;5.70;;;4.97;;
8104;SDS011;4095;48.942;9.104;2023-02-28T05:31:12;6.67;;;5.07;;
8104;SDS011;4095;48.942;9.104;2023-02-28T05:33:38;5.77;;;5.17;;
8104;SDS011;4095;48.942;9.104;2023-02-28T05:36:04;6.80;;;5.20;;
8104;SDS011;4095;48.942;9.104;2023-02-28T05:38:30;7.07;;;5.00;;
8104;SDS011;4095;48.942;9.104;2023-02-28T05:40:56;7.40;;;4.80;;
8104;SDS011;4095;48.942;9.104;2023-02-28T05:43:22;7.43;;;5.40;;
8104;SDS011;4095;48.942;9.104;2023-02-28T05:45:48;8.73;;;5.63;;
8104;SDS011;4095;48.942;9.104;2023-02-28T05:48:14;6.77;;;5.07;;
8104;SDS011;4095;48.942;9.104;2023-02-28T05:50:39;9.00;;;5.27;;
8104;SDS011;4095;48.942;9.104;2023-02-28T05:53:05;7.03;;;5.77;;
8104;SDS011;4095;48.942;9.104;2023-02-28T05:55:31;5.57;;;4.97;;
8104;SDS011;4095;48.942;9.104;2023-02-28T05:57:56;8.83;;;6.87;;
8104;SDS011;4095;48.942;9.104;2023-02-28T06:00:22;10.43;;;6.73;;
8104;SDS011;4095;48.942;9.104;2023-02-28T06:02:48;6.20;;;5.17;;
8104;SDS011;4095;48.942;9.104;2023-02-28T06:05:14;9.90;;;7.03;;
8104;SDS011;4095;48.942;9.104;2023-02-28T06:07:41;13.27;;;8.83;;
8104;SDS011;4095;48.942;9.104;2023-02-28T06:10:08;12.50;;;8.23;;
8104;SDS011;4095;48.942;9.104;2023-02-28T06:12:34;9.93;;;6.87;;
8104;SDS011;4095;48.942;9.104;2023-02-28T06:15:00;10.27;;;7.20;;
8104;SDS011;4095;48.942;9.104;2023-02-28T06:17:26;8.43;;;6.17;;
8104;SDS011;4095;48.942;9.104;2023-02-28T06:19:51;13.50;;;8.53;;
8104;SDS011;4095;48.942;9.104;2023-02-28T06:22:17;10.43;;;8.00;;
8104;SDS011;4095;48.942;9.104;2023-02-28T06:24:42;16.47;;;9.80;;
8104;SDS011;4095;48.942;9.104;2023-02-28T06:27:08;9.30;;;6.60;;
8104;SDS011;4095;48.942;9.104;2023-02-28T06:29:34;8.37;;;6.40;;
8104;SDS011;4095;48.942;9.104;2023-02-28T06:32:00;10.70;;;7.17;;
8104;SDS011;4095;48.942;9.104;2023-02-28T06:34:25;9.93;;;6.17;;
8104;SDS011;4095;48.942;9.104;2023-02-28T06:36:51;7.87;;;6.60;;
8104;SDS011;4095;48.942;9.104;2023-02-28T06:39:17;12.07;;;8.30;;
8104;SDS011;4095;48.942;9.104;2023-02-28T06:41:43;10.13;;;7.10;;
8104;SDS011;4095;48.942;9.104;2023-02-28T06:44:14;7.93;;;5.83;;
8104;SDS011;4095;48.942;9.104;2023-02-28T06:46:42;7.97;;;6.03;;
8104;SDS011;4095;48.942;9.104;2023-02-28T06:49:08;6.73;;;5.97;;
8104;SDS011;4095;48.942;9.104;2023-02-28T06:51:35;6.73;;;5.80;;
8104;SDS011;4095;48.942;9.104;2023-02-28T06:54:02;7.43;;;5.60;;
8104;SDS011;4095;48.942;9.104;2023-02-28T06:56:28;7.47;;;5.97;;
8104;SDS011;4095;48.942;9.104;2023-02-28T06:58:54;6.73;;;5.87;;
8104;SDS011;4095;48.942;9.104;2023-02-28T07:01:19;8.17;;;5.90;;
8104;SDS011;4095;48.942;9.104;2023-02-28T07:03:47;6.80;;;5.67;;
8104;SDS011;4095;48.942;9.104;2023-02-28T07:06:17;9.43;;;6.03;;
8104;SDS011;4095;48.942;9.104;2023-02-28T07:08:43;8.00;;;6.50;;
8104;SDS011;4095;48.942;9.104;2023-02-28T07:11:09;9.40;;;6.50;;
8104;SDS011;4095;48.942;9.104;2023-02-28T07:13:35;8.37;;;6.10;;
8104;SDS011;4095;48.942;9.104;2023-02-28T07:16:02;8.70;;;6.17;;
8104;SDS011;4095;48.942;9.104;2023-02-28T07:18:29;8.40;;;6.20;;
8104;SDS011;4095;48.942;9.104;2023-02-28T07:20:55;14.87;;;6.37;;
8104;SDS011;4095;48.942;9.104;2023-02-28T07:23:20;8.40;;;6.73;;
8104;SDS011;4095;48.942;9.104;2023-02-28T07:25:47;10.17;;;6.87;;
8104;SDS011;4095;48.942;9.104;2023-02-28T07:28:13;9.50;;;5.87;;
8104;SDS011;4095;48.942;9.104;2023-02-28T07:30:39;8.37;;;6.40;;
8104;SDS011;4095;48.942;9.104;2023-02-28T07:33:05;7.67;;;6.13;;
8104;SDS011;4095;48.942;9.104;2023-02-28T07:35:30;7.00;;;6.13;;
8104;SDS011;4095;48.942;9.104;2023-02-28T07:37:59;8.40;;;6.47;;
8104;SDS011;4095;48.942;9.104;2023-02-28T07:40:25;8.17;;;6.37;;
8104;SDS011;4095;48.942;9.104;2023-02-28T07:42:51;10.77;;;6.93;;
8104;SDS011;4095;48.942;9.104;2023-02-28T07:45:17;9.50;;;6.80;;
8104;SDS011;4095;48.942;9.104;2023-02-28T07:47:44;8.33;;;6.40;;
8104;SDS011;4095;48.942;9.104;2023-02-28T07:50:11;9.27;;;6.30;;
8104;SDS011;4095;48.942;9.104;2023-02-28T07:52:39;8.67;;;6.77;;
8104;SDS011;4095;48.942;9.104;2023-02-28T07:55:06;8.40;;;6.90;;
8104;SDS011;4095;48.942;9.104;2023-02-28T07:57:32;8.87;;;7.63;;
8104;SDS011;4095;48.942;9.104;2023-02-28T07:59:58;11.47;;;7.17;;
8104;SDS011;4095;48.942;9.104;2023-02-28T08:02:24;8.77;;;7.10;;
8104;SDS011;4095;48.942;9.104;2023-02-28T08:04:49;8.63;;;6.60;;
8104;SDS011;4095;48.942;9.104;2023-02-28T08:07:16;7.67;;;6.73;;
8104;SDS011;4095;48.942;9.104;2023-02-28T08:09:42;8.10;;;6.83;;
8104;SDS011;4095;48.942;9.104;2023-02-28T08:12:08;8.73;;;6.17;;
8104;SDS011;4095;48.942;9.104;2023-02-28T08:14:35;9.87;;;7.03;;
8104;SDS011;4095;48.942;9.104;2023-02-28T08:17:01;9.03;;;7.00;;
8104;SDS011;4095;48.942;9.104;2023-02-28T08:19:27;10.60;;;6.80;;
8104;SDS011;4095;48.942;9.104;2023-02-28T08:21:54;10.20;;;7.33;;
8104;SDS011;4095;48.942;9.104;2023-02-28T08:24:20;8.33;;;7.20;;
8104;SDS011;4095;48.942;9.104;2023-02-28T08:26:46;8.63;;;7.03;;
8104;SDS011;4095;48.942;9.104;2023-02-28T08:29:12;9.77;;;7.00;;
8104;SDS011;4095;48.942;9.104;2023-02-28T08:31:38;9.30;;;6.93;;
8104;SDS011;4095;48.942;9.104;2023-02-28T08:34:07;8.63;;;7.20;;
8104;SDS011;4095;48.942;9.104;2023-02-28T08:36:33;7.83;;;7.03;;
8104;SDS011;4095;48.942;9.104;2023-02-28T08:38:59;9.03;;;7.70;;
8104;SDS011;4095;48.942;9.104;2023-02-28T08:41:26;9.20;;;7.43;;
8104;SDS011;4095;48.942;9.104;2023-02-28T08:43:51;7.70;;;6.90;;
8104;SDS011;4095;48.942;9.104;2023-02-28T08:46:18;11.40;;;7.60;;
8104;SDS011;4095;48.942;9.104;2023-02-28T08:48:44;9.10;;;7.60;;
8104;SDS011;4095;48.942;9.104;2023-02-28T08:51:12;8.00;;;7.20;;
8104;SDS011;4095;48.942;9.104;2023-02-28T08:53:41;9.10;;;7.30;;
8104;SDS011;4095;48.942;9.104;2023-02-28T08:56:11;9.40;;;7.07;;
8104;SDS011;4095;48.942;9.104;2023-02-28T08:58:38;9.00;;;7.03;;
8104;SDS011;4095;48.942;9.104;2023-02-28T09:01:11;9.50;;;7.00;;
8104;SDS011;4095;48.942;9.104;2023-02-28T09:03:38;7.97;;;7.17;;
8104;SDS011;4095;48.942;9.104;2023-02-28T09:06:06;8.07;;;7.20;;
8104;SDS011;4095;48.942;9.104;2023-02-28T09:08:32;9.13;;;7.50;;
8104;SDS011;4095;48.942;9.104;2023-02-28T09:10:58;7.83;;;6.87;;
8104;SDS011;4095;48.942;9.104;2023-02-28T09:13:24;10.43;;;8.00;;
8104;SDS011;4095;48.942;9.104;2023-02-28T09:15:50;9.53;;;7.40;;
8104;SDS011;4095;48.942;9.104;2023-02-28T09:18:16;10.67;;;7.73;;
8104;SDS011;4095;48.942;9.104;2023-02-28T09:20:42;8.50;;;7.50;;
8104;SDS011;4095;48.942;9.104;2023-02-28T09:23:09;8.67;;;7.37;;
8104;SDS011;4095;48.942;9.104;2023-02-28T09:25:35;9.33;;;7.73;;
8104;SDS011;4095;48.942;9.104;2023-02-28T09:28:02;8.70;;;7.27;;
8104;SDS011;4095;48.942;9.104;2023-02-28T09:30:28;10.13;;;7.93;;
8104;SDS011;4095;48.942;9.104;2023-02-28T09:32:54;10.03;;;7.47;;
8104;SDS011;4095;48.942;9.104;2023-02-28T09:35:20;9.93;;;7.23;;
8104;SDS011;4095;48.942;9.104;2023-02-28T09:37:48;11.07;;;7.80;;
8104;SDS011;4095;48.942;9.104;2023-02-28T09:40:15;12.07;;;7.43;;
8104;SDS011;4095;48.942;9.104;2023-02-28T09:42:44;10.83;;;8.73;;
8104;SDS011;4095;48.942;9.104;2023-02-28T09:45:33;9.20;;;7.83;;
8104;SDS011;4095;48.942;9.104;2023-02-28T09:48:03;9.80;;;8.03;;
8104;SDS011;4095;48.942;9.104;2023-02-28T09:51:01;10.20;;;8.23;;
8104;SDS011;4095;48.942;9.104;2023-02-28T09:53:33;8.90;;;7.20;;
8104;SDS011;4095;48.942;9.104;2023-02-28T09:56:05;8.37;;;7.57;;
8104;SDS011;4095;48.942;9.104;2023-02-28T10:01:09;9.20;;;7.60;;
8104;SDS011;4095;48.942;9.104;2023-02-28T10:03:50;7.70;;;6.83;;
8104;SDS011;4095;48.942;9.104;2023-02-28T10:06:21;9.03;;;7.23;;
8104;SDS011;4095;48.942;9.104;2023-02-28T10:09:04;9.13;;;7.33;;
8104;SDS011;4095;48.942;9.104;2023-02-28T10:11:38;12.07;;;8.30;;
8104;SDS011;4095;48.942;9.104;2023-02-28T10:14:09;9.87;;;8.10;;
8104;SDS011;4095;48.942;9.104;2023-02-28T10:16:48;11.33;;;7.50;;
8104;SDS011;4095;48.942;9.104;2023-02-28T10:19:31;10.73;;;8.03;;
8104;SDS011;4095;48.942;9.104;2023-02-28T10:22:24;8.30;;;7.50;;
8104;SDS011;4095;48.942;9.104;2023-02-28T10:25:08;8.53;;;7.60;;
8104;SDS011;4095;48.942;9.104;2023-02-28T10:27:45;8.90;;;7.57;;
8104;SDS011;4095;48.942;9.104;2023-02-28T10:30:11;10.30;;;8.37;;
8104;SDS011;4095;48.942;9.104;2023-02-28T10:32:38;10.70;;;7.53;;
8104;SDS011;4095;48.942;9.104;2023-02-28T10:35:10;9.10;;;7.73;;
8104;SDS011;4095;48.942;9.104;2023-02-28T10:37:41;9.47;;;8.27;;
8104;SDS011;4095;48.942;9.104;2023-02-28T10:40:25;9.93;;;7.40;;
8104;SDS011;4095;48.942;9.104;2023-02-28T10:43:00;9.60;;;7.87;;
8104;SDS011;4095;48.942;9.104;2023-02-28T10:45:29;10.23;;;8.93;;
8104;SDS011;4095;48.942;9.104;2023-02-28T10:47:58;11.67;;;7.93;;
8104;SDS011;4095;48.942;9.104;2023-02-28T10:52:54;8.20;;;7.30;;
8104;SDS011;4095;48.942;9.104;2023-02-28T10:55:39;9.10;;;7.27;;
8104;SDS011;4095;48.942;9.104;2023-02-28T10:58:18;8.23;;;7.30;;
8104;SDS011;4095;48.942;9.104;2023-02-28T11:00:47;9.60;;;7.63;;
8104;SDS011;4095;48.942;9.104;2023-02-28T11:03:34;8.47;;;7.57;;
8104;SDS011;4095;48.942;9.104;2023-02-28T11:06:04;8.53;;;6.97;;
8104;SDS011;4095;48.942;9.104;2023-02-28T11:08:32;9.43;;;8.03;;
8104;SDS011;4095;48.942;9.104;2023-02-28T11:11:00;10.13;;;8.10;;
8104;SDS011;4095;48.942;9.104;2023-02-28T11:13:34;10.70;;;8.13;;
8104;SDS011;4095;48.942;9.104;2023-02-28T11:16:04;8.50;;;7.27;;
8104;SDS011;4095;48.942;9.104;2023-02-28T11:21:00;8.53;;;7.37;;
8104;SDS011;4095;48.942;9.104;2023-02-28T11:23:28;9.10;;;7.97;;
8104;SDS011;4095;48.942;9.104;2023-02-28T11:25:58;9.07;;;7.83;;
8104;SDS011;4095;48.942;9.104;2023-02-28T11:28:28;10.47;;;8.03;;
8104;SDS011;4095;48.942;9.104;2023-02-28T11:31:00;10.73;;;8.30;;
8104;SDS011;4095;48.942;9.104;2023-02-28T11:36:28;8.00;;;7.20;;
8104;SDS011;4095;48.942;9.104;2023-02-28T11:38:58;9.83;;;8.73;;
8104;SDS011;4095;48.942;9.104;2023-02-28T11:41:36;8.53;;;7.13;;
8104;SDS011;4095;48.942;9.104;2023-02-28T11:47:17;7.87;;;7.00;;
8104;SDS011;4095;48.942;9.104;2023-02-28T11:52:52;9.23;;;6.80;;
8104;SDS011;4095;48.942;9.104;2023-02-28T12:06:43;7.13;;;6.07;;
8104;SDS011;4095;48.942;9.104;2023-02-28T12:15:05;7.90;;;6.43;;
8104;SDS011;4095;48.942;9.104;2023-02-28T12:17:51;6.60;;;5.90;;
8104;SDS011;4095;48.942;9.104;2023-02-28T12:28:37;7.90;;;7.10;;
8104;SDS011;4095;48.942;9.104;2023-02-28T12:31:18;7.53;;;6.83;;
8104;SDS011;4095;48.942;9.104;2023-02-28T12:33:49;7.90;;;7.10;;
8104;SDS011;4095;48.942;9.104;2023-02-28T12:36:18;7.53;;;6.80;;
8104;SDS011;4095;48.942;9.104;2023-02-28T12:41:59;8.63;;;6.63;;
8104;SDS011;4095;48.942;9.104;2023-02-28T12:44:34;7.20;;;6.43;;
8104;SDS011;4095;48.942;9.104;2023-02-28T12:47:14;7.10;;;6.37;;
8104;SDS011;4095;48.942;9.104;2023-02-28T12:49:56;7.40;;;6.60;;
8104;SDS011;4095;48.942;9.104;2023-02-28T12:52:35;6.87;;;5.93;;
8104;SDS011;4095;48.942;9.104;2023-02-28T12:57:52;7.90;;;6.20;;
8104;SDS011;4095;48.942;9.104;2023-02-28T13:00:37;6.80;;;6.13;;
8104;SDS011;4095;48.942;9.104;2023-02-28T13:09:01;8.63;;;7.40;;
8104;SDS011;4095;48.942;9.104;2023-02-28T13:14:06;7.83;;;6.67;;
8104;SDS011;4095;48.942;9.104;2023-02-28T13:16:57;7.10;;;6.23;;
8104;SDS011;4095;48.942;9.104;2023-02-28T13:19:34;7.13;;;6.20;;
8104;SDS011;4095;48.942;9.104;2023-02-28T13:22:02;8.27;;;6.40;;
8104;SDS011;4095;48.942;9.104;2023-02-28T13:58:35;11.97;;;8.20;;
8104;SDS011;4095;48.942;9.104;2023-02-28T14:01:16;8.63;;;6.93;;
8104;SDS011;4095;48.942;9.104;2023-02-28T14:06:52;8.73;;;7.93;;
8104;SDS011;4095;48.942;9.104;2023-02-28T14:09:24;7.97;;;7.20;;
8104;SDS011;4095;48.942;9.104;2023-02-28T14:11:51;8.60;;;7.80;;
8104;SDS011;4095;48.942;9.104;2023-02-28T14:17:05;10.07;;;8.10;;
8104;SDS011;4095;48.942;9.104;2023-02-28T14:19:34;9.40;;;7.63;;
8104;SDS011;4095;48.942;9.104;2023-02-28T14:35:13;8.57;;;7.53;;
8104;SDS011;4095;48.942;9.104;2023-02-28T14:37:51;10.00;;;8.50;;
8104;SDS011;4095;48.942;9.104;2023-02-28T14:42:55;10.10;;;8.20;;
8104;SDS011;4095;48.942;9.104;2023-02-28T14:45:22;10.87;;;8.47;;
8104;SDS011;4095;48.942;9.104;2023-02-28T14:47:51;8.93;;;7.70;;
8104;SDS011;4095;48.942;9.104;2023-02-28T14:50:21;9.07;;;7.53;;
8104;SDS011;4095;48.942;9.104;2023-02-28T14:53:00;8.70;;;7.90;;
8104;SDS011;4095;48.942;9.104;2023-02-28T14:55:36;9.53;;;7.50;;
8104;SDS011;4095;48.942;9.104;2023-02-28T14:58:06;17.43;;;13.47;;
8104;SDS011;4095;48.942;9.104;2023-02-28T15:00:48;10.43;;;9.33;;
8104;SDS011;4095;48.942;9.104;2023-02-28T15:03:20;10.07;;;9.03;;
8104;SDS011;4095;48.942;9.104;2023-02-28T15:06:04;8.90;;;7.73;;
8104;SDS011;4095;48.942;9.104;2023-02-28T15:08:43;8.73;;;7.63;;
8104;SDS011;4095;48.942;9.104;2023-02-28T15:11:13;11.43;;;8.43;;
8104;SDS011;4095;48.942;9.104;2023-02-28T15:13:51;9.70;;;8.70;;
8104;SDS011;4095;48.942;9.104;2023-02-28T15:16:21;10.40;;;8.50;;
8104;SDS011;4095;48.942;9.104;2023-02-28T15:18:53;10.27;;;9.10;;
8104;SDS011;4095;48.942;9.104;2023-02-28T15:21:25;8.53;;;7.43;;
8104;SDS011;4095;48.942;9.104;2023-02-28T15:23:58;8.73;;;7.67;;
8104;SDS011;4095;48.942;9.104;2023-02-28T15:26:30;9.90;;;8.77;;
8104;SDS011;4095;48.942;9.104;2023-02-28T15:29:10;9.37;;;7.83;;
8104;SDS011;4095;48.942;9.104;2023-02-28T15:31:51;9.53;;;8.10;;
8104;SDS011;4095;48.942;9.104;2023-02-28T15:34:42;9.97;;;8.20;;
8104;SDS011;4095;48.942;9.104;2023-02-28T15:37:25;9.83;;;8.47;;
8104;SDS011;4095;48.942;9.104;2023-02-28T15:39:52;9.43;;;8.40;;
8104;SDS011;4095;48.942;9.104;2023-02-28T15:42:19;8.60;;;7.50;;
8104;SDS011;4095;48.942;9.104;2023-02-28T15:44:46;9.80;;;8.37;;
8104;SDS011;4095;48.942;9.104;2023-02-28T15:47:19;9.87;;;8.03;;
8104;SDS011;4095;48.942;9.104;2023-02-28T15:55:19;9.53;;;7.70;;
8104;SDS011;4095;48.942;9.104;2023-02-28T15:57:48;9.13;;;8.23;;
8104;SDS011;4095;48.942;9.104;2023-02-28T16:00:18;9.70;;;8.27;;
8104;SDS011;4095;48.942;9.104;2023-02-28T16:02:47;11.23;;;8.33;;
8104;SDS011;4095;48.942;9.104;2023-02-28T16:07:53;11.30;;;9.53;;
8104;SDS011;4095;48.942;9.104;2023-02-28T16:10:20;13.03;;;8.63;;
8104;SDS011;4095;48.942;9.104;2023-02-28T16:12:50;10.33;;;8.80;;
8104;SDS011;4095;48.942;9.104;2023-02-28T16:17:46;10.47;;;8.03;;
8104;SDS011;4095;48.942;9.104;2023-02-28T16:20:30;11.23;;;8.47;;
8104;SDS011;4095;48.942;9.104;2023-02-28T16:22:56;11.97;;;9.90;;
8104;SDS011;4095;48.942;9.104;2023-02-28T16:25:33;11.13;;;9.53;;
8104;SDS011;4095;48.942;9.104;2023-02-28T16:28:03;10.23;;;9.07;;
8104;SDS011;4095;48.942;9.104;2023-02-28T16:30:32;10.37;;;8.40;;
8104;SDS011;4095;48.942;9.104;2023-02-28T16:32:58;9.97;;;8.50;;
8104;SDS011;4095;48.942;9.104;2023-02-28T16:35:24;9.60;;;8.60;;
8104;SDS011;4095;48.942;9.104;2023-02-28T16:37:50;10.47;;;9.03;;
8104;SDS011;4095;48.942;9.104;2023-02-28T16:40:19;11.10;;;9.97;;
8104;SDS011;4095;48.942;9.104;2023-02-28T16:42:51;11.70;;;9.53;;
8104;SDS011;4095;48.942;9.104;2023-02-28T16:45:27;12.30;;;9.73;;
8104;SDS011;4095;48.942;9.104;2023-02-28T16:47:53;10.80;;;9.27;;
8104;SDS011;4095;48.942;9.104;2023-02-28T16:52:47;11.07;;;8.90;;
8104;SDS011;4095;48.942;9.104;2023-02-28T16:55:14;12.23;;;9.30;;
8104;SDS011;4095;48.942;9.104;2023-02-28T16:57:40;11.37;;;9.23;;
8104;SDS011;4095;48.942;9.104;2023-02-28T17:00:08;10.73;;;8.93;;
8104;SDS011;4095;48.942;9.104;2023-02-28T17:02:37;11.67;;;9.33;;
8104;SDS011;4095;48.942;9.104;2023-02-28T17:05:03;10.87;;;8.93;;
8104;SDS011;4095;48.942;9.104;2023-02-28T17:07:29;10.93;;;9.10;;
8104;SDS011;4095;48.942;9.104;2023-02-28T17:09:55;12.57;;;9.13;;
8104;SDS011;4095;48.942;9.104;2023-02-28T17:12:20;11.10;;;9.67;;
8104;SDS011;4095;48.942;9.104;2023-02-28T17:14:46;10.70;;;8.90;;
8104;SDS011;4095;48.942;9.104;2023-02-28T17:17:15;12.70;;;9.90;;
8104;SDS011;4095;48.942;9.104;2023-02-28T17:19:43;10.37;;;9.10;;
8104;SDS011;4095;48.942;9.104;2023-02-28T17:22:09;13.30;;;9.50;;
8104;SDS011;4095;48.942;9.104;2023-02-28T17:24:35;12.00;;;10.30;;
8104;SDS011;4095;48.942;9.104;2023-02-28T17:27:01;13.13;;;10.87;;
8104;SDS011;4095;48.942;9.104;2023-02-28T17:29:27;13.67;;;11.20;;
8104;SDS011;4095;48.942;9.104;2023-02-28T17:31:52;12.07;;;10.67;;
8104;SDS011;4095;48.942;9.104;2023-02-28T17:34:18;12.17;;;10.83;;
8104;SDS011;4095;48.942;9.104;2023-02-28T17:36:45;17.07;;;10.60;;
8104;SDS011;4095;48.942;9.104;2023-02-28T17:39:12;12.70;;;10.43;;
8104;SDS011;4095;48.942;9.104;2023-02-28T17:41:42;13.73;;;10.50;;
8104;SDS011;4095;48.942;9.104;2023-02-28T17:44:08;12.23;;;10.33;;
8104;SDS011;4095;48.942;9.104;2023-02-28T17:46:34;14.07;;;11.07;;
8104;SDS011;4095;48.942;9.104;2023-02-28T17:49:00;16.27;;;12.87;;
8104;SDS011;4095;48.942;9.104;2023-02-28T17:51:26;13.77;;;11.50;;
8104;SDS011;4095;48.942;9.104;2023-02-28T17:53:52;15.73;;;12.20;;
8104;SDS011;4095;48.942;9.104;2023-02-28T17:56:21;14.80;;;11.57;;
8104;SDS011;4095;48.942;9.104;2023-02-28T17:58:48;12.83;;;10.47;;
8104;SDS011;4095;48.942;9.104;2023-02-28T18:01:16;13.60;;;10.00;;
8104;SDS011;4095;48.942;9.104;2023-02-28T18:03:41;12.37;;;10.13;;
8104;SDS011;4095;48.942;9.104;2023-02-28T18:06:11;11.80;;;10.03;;
8104;SDS011;4095;48.942;9.104;2023-02-28T18:08:41;14.10;;;10.10;;
8104;SDS011;4095;48.942;9.104;2023-02-28T18:11:07;12.27;;;10.97;;
8104;SDS011;4095;48.942;9.104;2023-02-28T18:13:41;16.33;;;13.40;;
8104;SDS011;4095;48.942;9.104;2023-02-28T18:16:11;16.23;;;13.10;;